Recreo, Argentina
Current Conditions -  °F | °C
As of 11:00 PM on Sunday 23 Nov 2014 (Local Time) from SACO Reporting Station
Clear Clear  
Wind Chill: 68°   Ceiling: Unl
Heat Index: 68°   Visibility: 6mi
Dew Point: 59°   Wind: 7mph
Humidity: 73%   Direction: 20°NNE
Pressure: 29.77"   Gusts: NA
Location:  29.27°S, 65.07°W
Report Text: SACO 240200Z 02006KT CAVOK 20/15 Q1008
Loading
Personal Weather Stations






























Interactive Weather Map New forecast layout! Learn more

10-Day Weather Forecast

Advertisements
Track Severe Weather on mobile